sensor_id;sensor_type;location;lat;lon;timestamp;P1;durP1;ratioP1;P2;durP2;ratioP2
46158;SDS011;31888;44.512;26.104;2023-05-14T00:01:07;19.65;;;11.05;;
46158;SDS011;31888;44.512;26.104;2023-05-14T00:03:32;19.67;;;10.60;;
46158;SDS011;31888;44.512;26.104;2023-05-14T00:05:56;22.55;;;10.90;;
46158;SDS011;31888;44.512;26.104;2023-05-14T00:08:21;18.58;;;11.38;;
46158;SDS011;31888;44.512;26.104;2023-05-14T00:10:46;19.52;;;10.88;;
46158;SDS011;31888;44.512;26.104;2023-05-14T00:13:10;21.02;;;10.88;;
46158;SDS011;31888;44.512;26.104;2023-05-14T00:15:36;19.67;;;11.52;;
46158;SDS011;31888;44.512;26.104;2023-05-14T00:18:01;20.23;;;11.48;;
46158;SDS011;31888;44.512;26.104;2023-05-14T00:20:26;22.85;;;12.48;;
46158;SDS011;31888;44.512;26.104;2023-05-14T00:22:51;19.50;;;10.98;;
46158;SDS011;31888;44.512;26.104;2023-05-14T00:25:16;21.13;;;12.30;;
46158;SDS011;31888;44.512;26.104;2023-05-14T00:27:41;19.42;;;11.25;;
46158;SDS011;31888;44.512;26.104;2023-05-14T00:30:06;20.45;;;11.38;;
46158;SDS011;31888;44.512;26.104;2023-05-14T00:32:33;18.55;;;11.63;;
46158;SDS011;31888;44.512;26.104;2023-05-14T00:34:58;21.20;;;11.55;;
46158;SDS011;31888;44.512;26.104;2023-05-14T00:37:25;20.08;;;12.45;;
46158;SDS011;31888;44.512;26.104;2023-05-14T00:39:50;22.38;;;12.55;;
46158;SDS011;31888;44.512;26.104;2023-05-14T00:42:15;19.17;;;12.65;;
46158;SDS011;31888;44.512;26.104;2023-05-14T00:44:39;19.85;;;12.55;;
46158;SDS011;31888;44.512;26.104;2023-05-14T00:47:04;22.13;;;12.13;;
46158;SDS011;31888;44.512;26.104;2023-05-14T00:49:30;21.50;;;12.05;;
46158;SDS011;31888;44.512;26.104;2023-05-14T00:51:55;23.10;;;13.23;;
46158;SDS011;31888;44.512;26.104;2023-05-14T00:54:20;20.27;;;12.45;;
46158;SDS011;31888;44.512;26.104;2023-05-14T00:56:46;19.92;;;11.88;;
46158;SDS011;31888;44.512;26.104;2023-05-14T00:59:11;26.90;;;12.45;;
46158;SDS011;31888;44.512;26.104;2023-05-14T01:01:36;19.10;;;11.85;;
46158;SDS011;31888;44.512;26.104;2023-05-14T01:04:03;17.75;;;11.57;;
46158;SDS011;31888;44.512;26.104;2023-05-14T01:06:32;17.90;;;11.45;;
46158;SDS011;31888;44.512;26.104;2023-05-14T01:09:07;19.05;;;12.23;;
46158;SDS011;31888;44.512;26.104;2023-05-14T01:11:39;18.60;;;11.85;;
46158;SDS011;31888;44.512;26.104;2023-05-14T01:14:12;18.13;;;11.55;;
46158;SDS011;31888;44.512;26.104;2023-05-14T01:16:44;26.10;;;12.43;;
46158;SDS011;31888;44.512;26.104;2023-05-14T01:19:16;18.02;;;12.52;;
46158;SDS011;31888;44.512;26.104;2023-05-14T01:21:46;22.73;;;12.20;;
46158;SDS011;31888;44.512;26.104;2023-05-14T01:24:11;24.80;;;12.13;;
46158;SDS011;31888;44.512;26.104;2023-05-14T01:26:36;23.33;;;12.52;;
46158;SDS011;31888;44.512;26.104;2023-05-14T01:29:03;19.40;;;12.05;;
46158;SDS011;31888;44.512;26.104;2023-05-14T01:31:34;23.35;;;11.52;;
46158;SDS011;31888;44.512;26.104;2023-05-14T01:34:01;20.60;;;11.48;;
46158;SDS011;31888;44.512;26.104;2023-05-14T01:36:28;23.90;;;12.68;;
46158;SDS011;31888;44.512;26.104;2023-05-14T01:38:56;21.27;;;12.40;;
46158;SDS011;31888;44.512;26.104;2023-05-14T01:41:21;19.77;;;11.32;;
46158;SDS011;31888;44.512;26.104;2023-05-14T01:43:48;21.10;;;11.07;;
46158;SDS011;31888;44.512;26.104;2023-05-14T01:46:15;20.35;;;10.43;;
46158;SDS011;31888;44.512;26.104;2023-05-14T01:48:41;20.60;;;11.32;;
46158;SDS011;31888;44.512;26.104;2023-05-14T01:51:06;19.23;;;10.68;;
46158;SDS011;31888;44.512;26.104;2023-05-14T01:53:31;21.35;;;11.02;;
46158;SDS011;31888;44.512;26.104;2023-05-14T01:55:58;19.67;;;11.07;;
46158;SDS011;31888;44.512;26.104;2023-05-14T01:58:23;18.58;;;11.43;;
46158;SDS011;31888;44.512;26.104;2023-05-14T02:00:49;16.55;;;10.93;;
46158;SDS011;31888;44.512;26.104;2023-05-14T02:03:14;20.95;;;11.00;;
46158;SDS011;31888;44.512;26.104;2023-05-14T02:05:38;18.67;;;10.00;;
46158;SDS011;31888;44.512;26.104;2023-05-14T02:08:03;22.23;;;11.23;;
46158;SDS011;31888;44.512;26.104;2023-05-14T02:10:28;15.60;;;10.43;;
46158;SDS011;31888;44.512;26.104;2023-05-14T02:12:54;23.52;;;11.35;;
46158;SDS011;31888;44.512;26.104;2023-05-14T02:15:19;18.42;;;10.80;;
46158;SDS011;31888;44.512;26.104;2023-05-14T02:17:44;20.17;;;10.63;;
46158;SDS011;31888;44.512;26.104;2023-05-14T02:20:09;16.38;;;10.30;;
46158;SDS011;31888;44.512;26.104;2023-05-14T02:22:44;20.00;;;11.98;;
46158;SDS011;31888;44.512;26.104;2023-05-14T02:25:09;21.85;;;10.25;;
46158;SDS011;31888;44.512;26.104;2023-05-14T02:27:34;20.17;;;11.45;;
46158;SDS011;31888;44.512;26.104;2023-05-14T02:30:00;18.05;;;10.32;;
46158;SDS011;31888;44.512;26.104;2023-05-14T02:32:28;15.98;;;11.30;;
46158;SDS011;31888;44.512;26.104;2023-05-14T02:34:53;19.45;;;10.57;;
46158;SDS011;31888;44.512;26.104;2023-05-14T02:37:18;19.20;;;11.32;;
46158;SDS011;31888;44.512;26.104;2023-05-14T02:39:42;19.77;;;10.65;;
46158;SDS011;31888;44.512;26.104;2023-05-14T02:42:07;20.58;;;10.48;;
46158;SDS011;31888;44.512;26.104;2023-05-14T02:44:31;19.10;;;10.40;;
46158;SDS011;31888;44.512;26.104;2023-05-14T02:46:57;25.60;;;10.52;;
46158;SDS011;31888;44.512;26.104;2023-05-14T02:49:22;18.38;;;10.18;;
46158;SDS011;31888;44.512;26.104;2023-05-14T02:51:47;17.88;;;10.38;;
46158;SDS011;31888;44.512;26.104;2023-05-14T02:54:11;19.83;;;10.82;;
46158;SDS011;31888;44.512;26.104;2023-05-14T02:56:38;17.02;;;10.85;;
46158;SDS011;31888;44.512;26.104;2023-05-14T02:59:02;16.15;;;9.73;;
46158;SDS011;31888;44.512;26.104;2023-05-14T03:01:28;16.35;;;10.45;;
46158;SDS011;31888;44.512;26.104;2023-05-14T03:03:54;17.77;;;9.73;;
46158;SDS011;31888;44.512;26.104;2023-05-14T03:06:19;17.15;;;10.07;;
46158;SDS011;31888;44.512;26.104;2023-05-14T03:08:43;18.80;;;9.90;;
46158;SDS011;31888;44.512;26.104;2023-05-14T03:11:10;18.48;;;10.80;;
46158;SDS011;31888;44.512;26.104;2023-05-14T03:13:35;17.05;;;9.93;;
46158;SDS011;31888;44.512;26.104;2023-05-14T03:16:01;20.00;;;9.55;;
46158;SDS011;31888;44.512;26.104;2023-05-14T03:18:25;16.48;;;10.88;;
46158;SDS011;31888;44.512;26.104;2023-05-14T03:20:54;18.90;;;9.65;;
46158;SDS011;31888;44.512;26.104;2023-05-14T03:23:19;16.23;;;10.55;;
46158;SDS011;31888;44.512;26.104;2023-05-14T03:25:43;17.95;;;9.85;;
46158;SDS011;31888;44.512;26.104;2023-05-14T03:28:08;19.65;;;9.68;;
46158;SDS011;31888;44.512;26.104;2023-05-14T03:30:33;17.65;;;9.57;;
46158;SDS011;31888;44.512;26.104;2023-05-14T03:32:58;14.57;;;9.10;;
46158;SDS011;31888;44.512;26.104;2023-05-14T03:35:23;16.95;;;9.65;;
46158;SDS011;31888;44.512;26.104;2023-05-14T03:37:49;20.10;;;10.10;;
46158;SDS011;31888;44.512;26.104;2023-05-14T03:40:14;19.60;;;9.25;;
46158;SDS011;31888;44.512;26.104;2023-05-14T03:42:39;15.93;;;9.60;;
46158;SDS011;31888;44.512;26.104;2023-05-14T03:45:06;17.08;;;9.52;;
46158;SDS011;31888;44.512;26.104;2023-05-14T03:47:32;14.90;;;9.85;;
46158;SDS011;31888;44.512;26.104;2023-05-14T03:49:56;18.30;;;9.63;;
46158;SDS011;31888;44.512;26.104;2023-05-14T03:52:21;17.10;;;10.30;;
46158;SDS011;31888;44.512;26.104;2023-05-14T03:54:47;13.43;;;8.98;;
46158;SDS011;31888;44.512;26.104;2023-05-14T03:57:12;18.13;;;10.38;;
46158;SDS011;31888;44.512;26.104;2023-05-14T03:59:36;19.67;;;10.02;;
46158;SDS011;31888;44.512;26.104;2023-05-14T04:02:01;18.60;;;10.70;;
46158;SDS011;31888;44.512;26.104;2023-05-14T04:04:25;17.15;;;10.65;;
46158;SDS011;31888;44.512;26.104;2023-05-14T04:06:50;18.77;;;10.77;;
46158;SDS011;31888;44.512;26.104;2023-05-14T04:09:14;21.15;;;11.13;;
46158;SDS011;31888;44.512;26.104;2023-05-14T04:11:40;19.10;;;10.45;;
46158;SDS011;31888;44.512;26.104;2023-05-14T04:14:05;22.63;;;11.02;;
46158;SDS011;31888;44.512;26.104;2023-05-14T04:16:30;18.15;;;10.93;;
46158;SDS011;31888;44.512;26.104;2023-05-14T04:18:55;22.73;;;11.85;;
46158;SDS011;31888;44.512;26.104;2023-05-14T04:21:19;16.35;;;10.60;;
46158;SDS011;31888;44.512;26.104;2023-05-14T04:23:44;22.42;;;11.15;;
46158;SDS011;31888;44.512;26.104;2023-05-14T04:26:09;20.23;;;11.50;;
46158;SDS011;31888;44.512;26.104;2023-05-14T04:28:35;19.63;;;10.57;;
46158;SDS011;31888;44.512;26.104;2023-05-14T04:31:00;22.00;;;11.23;;
46158;SDS011;31888;44.512;26.104;2023-05-14T04:33:25;25.77;;;10.95;;
46158;SDS011;31888;44.512;26.104;2023-05-14T04:35:50;15.88;;;10.80;;
46158;SDS011;31888;44.512;26.104;2023-05-14T04:38:15;18.83;;;10.40;;
46158;SDS011;31888;44.512;26.104;2023-05-14T04:40:40;19.27;;;11.65;;
46158;SDS011;31888;44.512;26.104;2023-05-14T04:43:04;16.23;;;10.93;;
46158;SDS011;31888;44.512;26.104;2023-05-14T04:45:31;21.13;;;9.95;;
46158;SDS011;31888;44.512;26.104;2023-05-14T04:48:06;18.20;;;10.93;;
46158;SDS011;31888;44.512;26.104;2023-05-14T04:50:31;16.02;;;10.90;;
46158;SDS011;31888;44.512;26.104;2023-05-14T04:53:00;17.90;;;10.52;;
46158;SDS011;31888;44.512;26.104;2023-05-14T04:55:24;18.73;;;11.60;;
46158;SDS011;31888;44.512;26.104;2023-05-14T04:57:50;19.15;;;10.70;;
46158;SDS011;31888;44.512;26.104;2023-05-14T05:00:15;19.73;;;11.60;;
46158;SDS011;31888;44.512;26.104;2023-05-14T05:02:42;18.58;;;10.57;;
46158;SDS011;31888;44.512;26.104;2023-05-14T05:05:07;18.73;;;10.05;;
46158;SDS011;31888;44.512;26.104;2023-05-14T05:07:32;16.73;;;9.88;;
46158;SDS011;31888;44.512;26.104;2023-05-14T05:09:57;19.58;;;10.20;;
46158;SDS011;31888;44.512;26.104;2023-05-14T05:12:23;15.07;;;10.10;;
46158;SDS011;31888;44.512;26.104;2023-05-14T05:14:47;17.00;;;9.88;;
46158;SDS011;31888;44.512;26.104;2023-05-14T05:17:15;17.40;;;9.90;;
46158;SDS011;31888;44.512;26.104;2023-05-14T05:19:41;20.73;;;9.93;;
46158;SDS011;31888;44.512;26.104;2023-05-14T05:22:06;16.70;;;10.20;;
46158;SDS011;31888;44.512;26.104;2023-05-14T05:24:32;18.67;;;9.85;;
46158;SDS011;31888;44.512;26.104;2023-05-14T05:26:58;16.20;;;9.85;;
46158;SDS011;31888;44.512;26.104;2023-05-14T05:29:23;14.13;;;9.25;;
46158;SDS011;31888;44.512;26.104;2023-05-14T05:31:48;18.35;;;8.75;;
46158;SDS011;31888;44.512;26.104;2023-05-14T05:34:13;16.35;;;9.70;;
46158;SDS011;31888;44.512;26.104;2023-05-14T05:36:39;13.98;;;8.90;;
46158;SDS011;31888;44.512;26.104;2023-05-14T05:39:04;15.63;;;9.20;;
46158;SDS011;31888;44.512;26.104;2023-05-14T05:41:28;15.55;;;9.70;;
46158;SDS011;31888;44.512;26.104;2023-05-14T05:43:53;13.57;;;9.02;;
46158;SDS011;31888;44.512;26.104;2023-05-14T05:46:18;13.45;;;9.07;;
46158;SDS011;31888;44.512;26.104;2023-05-14T05:48:42;17.83;;;9.20;;
46158;SDS011;31888;44.512;26.104;2023-05-14T05:51:07;15.60;;;9.00;;
46158;SDS011;31888;44.512;26.104;2023-05-14T05:53:34;12.75;;;8.55;;
46158;SDS011;31888;44.512;26.104;2023-05-14T05:55:58;15.73;;;8.95;;
46158;SDS011;31888;44.512;26.104;2023-05-14T05:58:23;15.85;;;9.95;;
46158;SDS011;31888;44.512;26.104;2023-05-14T06:00:47;14.38;;;8.82;;
46158;SDS011;31888;44.512;26.104;2023-05-14T06:03:12;13.10;;;8.07;;
46158;SDS011;31888;44.512;26.104;2023-05-14T06:05:37;12.98;;;8.73;;
46158;SDS011;31888;44.512;26.104;2023-05-14T06:08:02;15.98;;;9.15;;
46158;SDS011;31888;44.512;26.104;2023-05-14T06:10:28;14.27;;;8.48;;
46158;SDS011;31888;44.512;26.104;2023-05-14T06:12:56;16.02;;;8.82;;
46158;SDS011;31888;44.512;26.104;2023-05-14T06:15:21;13.50;;;8.85;;
46158;SDS011;31888;44.512;26.104;2023-05-14T06:17:46;10.68;;;7.38;;
46158;SDS011;31888;44.512;26.104;2023-05-14T06:20:11;15.88;;;7.85;;
46158;SDS011;31888;44.512;26.104;2023-05-14T06:22:36;15.00;;;8.38;;
46158;SDS011;31888;44.512;26.104;2023-05-14T06:25:01;14.82;;;8.93;;
46158;SDS011;31888;44.512;26.104;2023-05-14T06:27:28;13.93;;;8.20;;
46158;SDS011;31888;44.512;26.104;2023-05-14T06:29:52;17.33;;;8.02;;
46158;SDS011;31888;44.512;26.104;2023-05-14T06:32:17;16.67;;;7.65;;
46158;SDS011;31888;44.512;26.104;2023-05-14T06:34:42;12.57;;;8.10;;
46158;SDS011;31888;44.512;26.104;2023-05-14T06:37:06;13.60;;;8.57;;
46158;SDS011;31888;44.512;26.104;2023-05-14T06:39:31;16.85;;;8.40;;
46158;SDS011;31888;44.512;26.104;2023-05-14T06:41:56;13.48;;;7.68;;
46158;SDS011;31888;44.512;26.104;2023-05-14T06:44:22;13.55;;;7.80;;
46158;SDS011;31888;44.512;26.104;2023-05-14T06:46:46;15.40;;;7.82;;
46158;SDS011;31888;44.512;26.104;2023-05-14T06:49:11;11.07;;;8.05;;
46158;SDS011;31888;44.512;26.104;2023-05-14T06:51:36;15.98;;;8.82;;
46158;SDS011;31888;44.512;26.104;2023-05-14T06:54:02;17.45;;;7.32;;
46158;SDS011;31888;44.512;26.104;2023-05-14T06:56:26;13.43;;;8.68;;
46158;SDS011;31888;44.512;26.104;2023-05-14T06:58:53;15.07;;;7.78;;
46158;SDS011;31888;44.512;26.104;2023-05-14T07:01:20;14.70;;;7.50;;
46158;SDS011;31888;44.512;26.104;2023-05-14T07:03:45;12.80;;;6.88;;
46158;SDS011;31888;44.512;26.104;2023-05-14T07:06:09;12.30;;;7.03;;
46158;SDS011;31888;44.512;26.104;2023-05-14T07:08:35;11.13;;;6.95;;
46158;SDS011;31888;44.512;26.104;2023-05-14T07:11:01;10.25;;;6.18;;
46158;SDS011;31888;44.512;26.104;2023-05-14T07:13:26;11.15;;;6.38;;
46158;SDS011;31888;44.512;26.104;2023-05-14T07:15:50;13.68;;;6.50;;
46158;SDS011;31888;44.512;26.104;2023-05-14T07:18:19;11.63;;;6.68;;
46158;SDS011;31888;44.512;26.104;2023-05-14T07:20:45;12.10;;;5.93;;
46158;SDS011;31888;44.512;26.104;2023-05-14T07:25:41;9.40;;;5.20;;
46158;SDS011;31888;44.512;26.104;2023-05-14T07:28:05;12.73;;;5.85;;
46158;SDS011;31888;44.512;26.104;2023-05-14T07:30:30;9.05;;;5.70;;
46158;SDS011;31888;44.512;26.104;2023-05-14T07:32:55;7.88;;;5.07;;
46158;SDS011;31888;44.512;26.104;2023-05-14T07:35:22;7.75;;;5.07;;
46158;SDS011;31888;44.512;26.104;2023-05-14T07:37:47;7.68;;;5.43;;
46158;SDS011;31888;44.512;26.104;2023-05-14T07:40:11;10.75;;;5.43;;
46158;SDS011;31888;44.512;26.104;2023-05-14T07:42:36;9.35;;;4.53;;
46158;SDS011;31888;44.512;26.104;2023-05-14T07:45:01;8.43;;;4.40;;
46158;SDS011;31888;44.512;26.104;2023-05-14T07:47:29;10.82;;;4.95;;
46158;SDS011;31888;44.512;26.104;2023-05-14T07:49:54;8.05;;;4.60;;
46158;SDS011;31888;44.512;26.104;2023-05-14T07:52:21;7.57;;;4.70;;
46158;SDS011;31888;44.512;26.104;2023-05-14T07:54:46;9.10;;;4.90;;
46158;SDS011;31888;44.512;26.104;2023-05-14T07:57:14;15.15;;;5.28;;
46158;SDS011;31888;44.512;26.104;2023-05-14T07:59:49;11.63;;;4.63;;
46158;SDS011;31888;44.512;26.104;2023-05-14T08:02:14;7.90;;;4.57;;
46158;SDS011;31888;44.512;26.104;2023-05-14T08:04:39;9.73;;;4.57;;
46158;SDS011;31888;44.512;26.104;2023-05-14T08:07:04;13.45;;;4.93;;
46158;SDS011;31888;44.512;26.104;2023-05-14T08:09:31;6.53;;;4.43;;
46158;SDS011;31888;44.512;26.104;2023-05-14T08:11:56;8.98;;;4.82;;
46158;SDS011;31888;44.512;26.104;2023-05-14T08:14:21;7.43;;;4.97;;
46158;SDS011;31888;44.512;26.104;2023-05-14T08:16:46;11.55;;;4.72;;
46158;SDS011;31888;44.512;26.104;2023-05-14T08:19:14;10.48;;;4.43;;
46158;SDS011;31888;44.512;26.104;2023-05-14T08:21:40;5.00;;;3.92;;
46158;SDS011;31888;44.512;26.104;2023-05-14T08:24:15;7.20;;;4.57;;
46158;SDS011;31888;44.512;26.104;2023-05-14T08:26:42;10.77;;;4.32;;
46158;SDS011;31888;44.512;26.104;2023-05-14T08:29:07;4.75;;;3.67;;
46158;SDS011;31888;44.512;26.104;2023-05-14T08:31:39;6.38;;;3.88;;
46158;SDS011;31888;44.512;26.104;2023-05-14T08:34:04;6.70;;;3.83;;
46158;SDS011;31888;44.512;26.104;2023-05-14T08:36:28;8.27;;;4.32;;
46158;SDS011;31888;44.512;26.104;2023-05-14T08:38:54;12.98;;;3.97;;
46158;SDS011;31888;44.512;26.104;2023-05-14T08:41:19;5.22;;;3.85;;
46158;SDS011;31888;44.512;26.104;2023-05-14T08:43:48;7.55;;;4.00;;
46158;SDS011;31888;44.512;26.104;2023-05-14T08:46:21;11.93;;;3.90;;
46158;SDS011;31888;44.512;26.104;2023-05-14T08:48:47;8.10;;;4.10;;
46158;SDS011;31888;44.512;26.104;2023-05-14T08:51:17;4.72;;;3.45;;
46158;SDS011;31888;44.512;26.104;2023-05-14T08:53:43;5.90;;;3.78;;
46158;SDS011;31888;44.512;26.104;2023-05-14T08:56:07;8.13;;;4.47;;
46158;SDS011;31888;44.512;26.104;2023-05-14T08:58:34;11.10;;;3.80;;
46158;SDS011;31888;44.512;26.104;2023-05-14T09:01:01;8.57;;;4.05;;
46158;SDS011;31888;44.512;26.104;2023-05-14T09:03:26;6.35;;;3.70;;
46158;SDS011;31888;44.512;26.104;2023-05-14T09:05:52;9.63;;;4.25;;
46158;SDS011;31888;44.512;26.104;2023-05-14T09:08:20;9.93;;;3.88;;
46158;SDS011;31888;44.512;26.104;2023-05-14T09:10:44;6.63;;;3.95;;
46158;SDS011;31888;44.512;26.104;2023-05-14T09:13:09;7.90;;;3.80;;
46158;SDS011;31888;44.512;26.104;2023-05-14T09:15:33;9.70;;;3.92;;
46158;SDS011;31888;44.512;26.104;2023-05-14T09:18:05;8.32;;;3.97;;
46158;SDS011;31888;44.512;26.104;2023-05-14T09:20:30;6.05;;;3.10;;
46158;SDS011;31888;44.512;26.104;2023-05-14T09:22:55;6.70;;;3.33;;
46158;SDS011;31888;44.512;26.104;2023-05-14T09:25:25;5.38;;;3.53;;
46158;SDS011;31888;44.512;26.104;2023-05-14T09:27:54;5.90;;;3.72;;
46158;SDS011;31888;44.512;26.104;2023-05-14T09:30:21;10.25;;;3.20;;
46158;SDS011;31888;44.512;26.104;2023-05-14T09:32:48;7.72;;;3.05;;
46158;SDS011;31888;44.512;26.104;2023-05-14T09:35:17;6.07;;;3.30;;
46158;SDS011;31888;44.512;26.104;2023-05-14T09:37:43;7.88;;;3.65;;
46158;SDS011;31888;44.512;26.104;2023-05-14T09:40:10;9.40;;;3.25;;
46158;SDS011;31888;44.512;26.104;2023-05-14T09:42:36;9.07;;;3.22;;
46158;SDS011;31888;44.512;26.104;2023-05-14T09:45:00;8.35;;;3.03;;
46158;SDS011;31888;44.512;26.104;2023-05-14T09:47:26;6.50;;;3.05;;
46158;SDS011;31888;44.512;26.104;2023-05-14T09:49:52;5.65;;;2.90;;
46158;SDS011;31888;44.512;26.104;2023-05-14T09:52:19;5.47;;;2.92;;
46158;SDS011;31888;44.512;26.104;2023-05-14T09:54:43;4.90;;;3.60;;
46158;SDS011;31888;44.512;26.104;2023-05-14T09:57:09;4.63;;;3.08;;
46158;SDS011;31888;44.512;26.104;2023-05-14T09:59:34;6.60;;;3.25;;
46158;SDS011;31888;44.512;26.104;2023-05-14T10:01:58;11.60;;;3.75;;
46158;SDS011;31888;44.512;26.104;2023-05-14T10:04:23;6.78;;;2.88;;
46158;SDS011;31888;44.512;26.104;2023-05-14T10:06:49;6.63;;;3.42;;
46158;SDS011;31888;44.512;26.104;2023-05-14T10:09:17;5.55;;;3.42;;
46158;SDS011;31888;44.512;26.104;2023-05-14T10:11:48;7.18;;;3.65;;
46158;SDS011;31888;44.512;26.104;2023-05-14T10:14:17;5.57;;;3.45;;
46158;SDS011;31888;44.512;26.104;2023-05-14T10:19:12;7.15;;;3.70;;
46158;SDS011;31888;44.512;26.104;2023-05-14T10:21:40;6.50;;;3.40;;
46158;SDS011;31888;44.512;26.104;2023-05-14T10:24:07;10.05;;;3.78;;
46158;SDS011;31888;44.512;26.104;2023-05-14T10:26:36;8.48;;;4.13;;
46158;SDS011;31888;44.512;26.104;2023-05-14T10:29:03;5.40;;;3.28;;
46158;SDS011;31888;44.512;26.104;2023-05-14T10:31:46;10.18;;;5.10;;
46158;SDS011;31888;44.512;26.104;2023-05-14T10:37:05;6.47;;;3.20;;
46158;SDS011;31888;44.512;26.104;2023-05-14T10:39:41;5.28;;;3.60;;
46158;SDS011;31888;44.512;26.104;2023-05-14T10:42:13;11.13;;;4.30;;
46158;SDS011;31888;44.512;26.104;2023-05-14T10:44:44;9.48;;;3.20;;
46158;SDS011;31888;44.512;26.104;2023-05-14T10:47:11;3.67;;;2.83;;
46158;SDS011;31888;44.512;26.104;2023-05-14T10:49:37;9.25;;;3.17;;
46158;SDS011;31888;44.512;26.104;2023-05-14T10:52:06;5.03;;;3.10;;
46158;SDS011;31888;44.512;26.104;2023-05-14T10:54:34;11.27;;;3.33;;
46158;SDS011;31888;44.512;26.104;2023-05-14T10:56:59;6.88;;;3.08;;
46158;SDS011;31888;44.512;26.104;2023-05-14T10:59:27;7.63;;;2.72;;
46158;SDS011;31888;44.512;26.104;2023-05-14T11:01:51;9.05;;;3.22;;
46158;SDS011;31888;44.512;26.104;2023-05-14T11:04:17;6.05;;;3.17;;
46158;SDS011;31888;44.512;26.104;2023-05-14T11:06:42;3.83;;;2.83;;
46158;SDS011;31888;44.512;26.104;2023-05-14T11:09:07;4.82;;;2.78;;
46158;SDS011;31888;44.512;26.104;2023-05-14T11:11:33;7.22;;;2.88;;
46158;SDS011;31888;44.512;26.104;2023-05-14T11:13:58;7.95;;;3.67;;
46158;SDS011;31888;44.512;26.104;2023-05-14T11:16:25;7.60;;;2.85;;
46158;SDS011;31888;44.512;26.104;2023-05-14T11:18:52;4.77;;;2.97;;
46158;SDS011;31888;44.512;26.104;2023-05-14T11:21:27;5.25;;;3.05;;
46158;SDS011;31888;44.512;26.104;2023-05-14T11:23:53;8.88;;;3.38;;
46158;SDS011;31888;44.512;26.104;2023-05-14T11:26:18;6.45;;;3.15;;
46158;SDS011;31888;44.512;26.104;2023-05-14T11:28:44;7.35;;;4.13;;
46158;SDS011;31888;44.512;26.104;2023-05-14T11:31:10;7.65;;;3.88;;
46158;SDS011;31888;44.512;26.104;2023-05-14T11:33:36;9.73;;;5.07;;
46158;SDS011;31888;44.512;26.104;2023-05-14T11:36:03;9.30;;;4.38;;
46158;SDS011;31888;44.512;26.104;2023-05-14T11:38:30;7.72;;;4.13;;
46158;SDS011;31888;44.512;26.104;2023-05-14T11:41:07;4.85;;;3.47;;
46158;SDS011;31888;44.512;26.104;2023-05-14T11:43:31;6.10;;;3.30;;
46158;SDS011;31888;44.512;26.104;2023-05-14T11:46:00;5.85;;;3.40;;
46158;SDS011;31888;44.512;26.104;2023-05-14T11:48:38;5.95;;;3.13;;
46158;SDS011;31888;44.512;26.104;2023-05-14T11:51:03;9.52;;;3.55;;
46158;SDS011;31888;44.512;26.104;2023-05-14T11:53:29;4.90;;;3.47;;
46158;SDS011;31888;44.512;26.104;2023-05-14T11:55:54;4.47;;;2.80;;
46158;SDS011;31888;44.512;26.104;2023-05-14T11:58:20;6.00;;;3.50;;
46158;SDS011;31888;44.512;26.104;2023-05-14T12:00:48;7.38;;;2.90;;
46158;SDS011;31888;44.512;26.104;2023-05-14T12:03:15;4.32;;;3.17;;
46158;SDS011;31888;44.512;26.104;2023-05-14T12:05:55;7.32;;;3.97;;
46158;SDS011;31888;44.512;26.104;2023-05-14T12:08:26;11.63;;;4.32;;
46158;SDS011;31888;44.512;26.104;2023-05-14T12:10:52;8.75;;;3.08;;
46158;SDS011;31888;44.512;26.104;2023-05-14T12:13:23;4.07;;;3.25;;
46158;SDS011;31888;44.512;26.104;2023-05-14T12:15:52;6.80;;;3.75;;
46158;SDS011;31888;44.512;26.104;2023-05-14T12:18:18;7.75;;;3.53;;
46158;SDS011;31888;44.512;26.104;2023-05-14T12:20:46;4.28;;;3.33;;
46158;SDS011;31888;44.512;26.104;2023-05-14T12:23:14;4.25;;;3.42;;
46158;SDS011;31888;44.512;26.104;2023-05-14T12:25:50;6.72;;;3.65;;
46158;SDS011;31888;44.512;26.104;2023-05-14T12:28:16;7.03;;;3.80;;
46158;SDS011;31888;44.512;26.104;2023-05-14T12:30:41;7.50;;;3.35;;
46158;SDS011;31888;44.512;26.104;2023-05-14T12:33:09;4.68;;;3.10;;
46158;SDS011;31888;44.512;26.104;2023-05-14T12:35:38;9.27;;;3.33;;
46158;SDS011;31888;44.512;26.104;2023-05-14T12:38:03;10.77;;;4.88;;
46158;SDS011;31888;44.512;26.104;2023-05-14T12:40:30;7.93;;;3.60;;
46158;SDS011;31888;44.512;26.104;2023-05-14T12:42:58;5.28;;;3.47;;
46158;SDS011;31888;44.512;26.104;2023-05-14T12:45:23;5.07;;;3.20;;
46158;SDS011;31888;44.512;26.104;2023-05-14T12:47:50;7.07;;;4.20;;
46158;SDS011;31888;44.512;26.104;2023-05-14T12:50:17;9.48;;;3.72;;
46158;SDS011;31888;44.512;26.104;2023-05-14T12:52:56;7.55;;;3.55;;
46158;SDS011;31888;44.512;26.104;2023-05-14T12:55:21;8.45;;;3.30;;
46158;SDS011;31888;44.512;26.104;2023-05-14T12:57:50;8.10;;;2.80;;
46158;SDS011;31888;44.512;26.104;2023-05-14T13:00:16;5.40;;;2.70;;
46158;SDS011;31888;44.512;26.104;2023-05-14T13:02:43;4.03;;;2.90;;
46158;SDS011;31888;44.512;26.104;2023-05-14T13:05:11;5.45;;;3.25;;
46158;SDS011;31888;44.512;26.104;2023-05-14T13:07:40;6.53;;;3.22;;
46158;SDS011;31888;44.512;26.104;2023-05-14T13:10:12;3.67;;;2.88;;
46158;SDS011;31888;44.512;26.104;2023-05-14T13:12:41;5.07;;;3.45;;
46158;SDS011;31888;44.512;26.104;2023-05-14T13:15:12;7.55;;;3.80;;
46158;SDS011;31888;44.512;26.104;2023-05-14T13:17:37;4.45;;;3.33;;
46158;SDS011;31888;44.512;26.104;2023-05-14T13:20:07;8.18;;;3.40;;
46158;SDS011;31888;44.512;26.104;2023-05-14T13:22:33;6.40;;;3.17;;
46158;SDS011;31888;44.512;26.104;2023-05-14T13:25:00;6.95;;;3.15;;
46158;SDS011;31888;44.512;26.104;2023-05-14T13:27:28;4.65;;;3.20;;
46158;SDS011;31888;44.512;26.104;2023-05-14T13:29:54;9.52;;;4.13;;
46158;SDS011;31888;44.512;26.104;2023-05-14T13:32:20;9.70;;;3.47;;
46158;SDS011;31888;44.512;26.104;2023-05-14T13:34:46;4.63;;;3.10;;
46158;SDS011;31888;44.512;26.104;2023-05-14T13:37:10;9.38;;;3.70;;
46158;SDS011;31888;44.512;26.104;2023-05-14T13:39:36;7.13;;;3.88;;
46158;SDS011;31888;44.512;26.104;2023-05-14T13:42:03;6.85;;;3.28;;
46158;SDS011;31888;44.512;26.104;2023-05-14T13:44:28;5.45;;;3.30;;
46158;SDS011;31888;44.512;26.104;2023-05-14T13:46:53;8.95;;;3.83;;
46158;SDS011;31888;44.512;26.104;2023-05-14T13:49:20;7.43;;;3.67;;
46158;SDS011;31888;44.512;26.104;2023-05-14T13:51:44;10.52;;;3.60;;
46158;SDS011;31888;44.512;26.104;2023-05-14T13:54:10;7.72;;;3.42;;
46158;SDS011;31888;44.512;26.104;2023-05-14T13:56:35;6.28;;;3.78;;
46158;SDS011;31888;44.512;26.104;2023-05-14T13:59:03;5.78;;;3.80;;
46158;SDS011;31888;44.512;26.104;2023-05-14T14:01:27;6.18;;;3.95;;
46158;SDS011;31888;44.512;26.104;2023-05-14T14:03:58;9.02;;;3.78;;
46158;SDS011;31888;44.512;26.104;2023-05-14T14:06:30;6.75;;;3.78;;
46158;SDS011;31888;44.512;26.104;2023-05-14T14:08:56;4.93;;;3.72;;
46158;SDS011;31888;44.512;26.104;2023-05-14T14:11:24;7.63;;;4.28;;
46158;SDS011;31888;44.512;26.104;2023-05-14T14:13:49;6.05;;;4.25;;
46158;SDS011;31888;44.512;26.104;2023-05-14T14:16:15;7.07;;;3.88;;
46158;SDS011;31888;44.512;26.104;2023-05-14T14:18:43;6.57;;;3.97;;
46158;SDS011;31888;44.512;26.104;2023-05-14T14:21:08;5.32;;;4.00;;
46158;SDS011;31888;44.512;26.104;2023-05-14T14:23:35;6.25;;;3.72;;
46158;SDS011;31888;44.512;26.104;2023-05-14T14:26:00;6.15;;;4.75;;